Time;durP1;ratioP1;P1;durP2;ratioP2;P2;SDS_P1;SDS_P2;PMS_P1;PMS_P2;Temp;Humidity;BMP_temperature;BMP_pressure;BME280_temperature;BME280_humidity;BME280_pressure;Samples;Min_cycle;Max_cycle;Signal;HPM_P1;HPM_P2
2023/06/14 00:01:45;;;;;;;4.82;1.33;;;15.60;86.60;;;;;;5064125;28;20098;-83
2023/06/14 00:04:12;;;;;;;2.50;1.02;;;15.60;86.70;;;;;;5062742;28;20410;-84
2023/06/14 00:06:38;;;;;;;7.97;1.45;;;15.50;87.00;;;;;;5096272;28;20109;-82
2023/06/14 00:09:04;;;;;;;5.20;1.00;;;15.50;87.00;;;;;;5065170;28;20519;-83
2023/06/14 00:11:31;;;;;;;3.97;1.00;;;15.50;87.40;;;;;;5064989;28;20062;-82
2023/06/14 00:13:57;;;;;;;6.38;1.83;;;15.40;87.50;;;;;;5096016;28;20036;-83
2023/06/14 00:16:22;;;;;;;9.15;1.40;;;15.40;87.80;;;;;;5065141;28;20052;-83
2023/06/14 00:18:48;;;;;;;3.30;1.23;;;15.30;88.10;;;;;;5063218;28;20037;-83
2023/06/14 00:21:14;;;;;;;10.20;1.75;;;15.30;88.20;;;;;;5060973;28;20052;-82
2023/06/14 00:23:39;;;;;;;7.28;1.27;;;15.30;88.40;;;;;;5060489;28;20040;-82
2023/06/14 00:26:05;;;;;;;7.88;1.45;;;15.20;88.80;;;;;;5063384;28;20104;-84
2023/06/14 00:28:31;;;;;;;10.73;1.52;;;15.20;88.70;;;;;;5064324;28;20048;-84
2023/06/14 00:30:56;;;;;;;4.22;1.23;;;15.20;89.00;;;;;;5068182;28;20036;-83
2023/06/14 00:33:22;;;;;;;3.65;0.95;;;15.10;89.40;;;;;;5063403;28;20045;-84
2023/06/14 00:35:48;;;;;;;5.75;2.00;;;15.10;89.50;;;;;;5062858;28;20040;-82
2023/06/14 00:38:13;;;;;;;4.60;1.50;;;15.10;89.80;;;;;;5065668;28;20490;-83
2023/06/14 00:40:39;;;;;;;2.45;1.00;;;15.00;89.90;;;;;;5063830;28;20490;-82
2023/06/14 00:43:04;;;;;;;4.38;0.80;;;14.90;90.10;;;;;;5066097;28;20072;-83
2023/06/14 00:45:31;;;;;;;10.45;1.25;;;14.90;90.00;;;;;;5065311;28;20048;-83
2023/06/14 00:47:57;;;;;;;1.75;1.20;;;14.90;90.20;;;;;;5063145;28;20044;-82
2023/06/14 00:50:23;;;;;;;7.07;1.70;;;14.90;90.30;;;;;;5064527;28;20652;-83
2023/06/14 00:52:49;;;;;;;5.55;2.38;;;14.90;90.30;;;;;;5064072;28;20048;-84
2023/06/14 00:55:15;;;;;;;3.15;1.30;;;14.90;90.40;;;;;;5064740;28;20043;-82
2023/06/14 00:57:41;;;;;;;15.80;1.42;;;14.90;90.60;;;;;;5061838;28;20040;-83
2023/06/14 01:00:09;;;;;;;38.22;3.60;;;14.90;90.60;;;;;;5063775;28;20478;-84
2023/06/14 01:02:38;;;;;;;4.47;0.93;;;14.80;90.70;;;;;;5057295;28;20055;-83
2023/06/14 01:05:06;;;;;;;6.78;1.33;;;14.80;90.80;;;;;;5062339;28;20059;-83
2023/06/14 01:07:51;;;;;;;5.68;1.20;;;14.80;90.90;;;;;;5060680;28;20052;-82
2023/06/14 01:10:35;;;;;;;5.43;1.33;;;14.70;91.10;;;;;;5082203;28;20044;-83
2023/06/14 01:13:07;;;;;;;5.80;1.58;;;14.60;91.20;;;;;;5061350;28;20036;-83
2023/06/14 01:15:34;;;;;;;6.38;1.25;;;14.60;91.20;;;;;;5062359;28;20048;-83
2023/06/14 01:18:02;;;;;;;3.40;1.13;;;14.60;91.40;;;;;;5062098;28;20044;-82
2023/06/14 01:20:29;;;;;;;4.05;1.10;;;14.50;91.60;;;;;;5066277;28;20051;-82
2023/06/14 01:22:55;;;;;;;4.95;1.55;;;14.50;91.60;;;;;;5057989;28;20045;-83
2023/06/14 01:25:22;;;;;;;3.72;1.30;;;14.50;91.70;;;;;;5063413;28;20090;-83
2023/06/14 01:27:55;;;;;;;2.28;0.98;;;14.50;91.90;;;;;;5065701;28;20067;-83
2023/06/14 01:30:22;;;;;;;3.30;1.20;;;14.50;92.00;;;;;;5065401;28;20044;-83
2023/06/14 01:32:50;;;;;;;3.80;1.45;;;14.50;92.00;;;;;;5062640;28;20044;-84
2023/06/14 01:35:16;;;;;;;29.80;3.10;;;14.50;92.10;;;;;;5065440;28;20068;-84
2023/06/14 01:37:43;;;;;;;2.28;1.10;;;14.40;92.30;;;;;;5066553;28;20071;-83
2023/06/14 01:40:10;;;;;;;5.78;1.65;;;14.40;92.50;;;;;;5096967;28;20123;-83
2023/06/14 01:42:38;;;;;;;3.20;1.10;;;14.40;92.50;;;;;;5063318;28;20163;-83
2023/06/14 01:45:08;;;;;;;2.33;1.40;;;14.30;92.60;;;;;;5092607;28;20127;-83
2023/06/14 01:47:35;;;;;;;5.93;1.00;;;14.30;92.70;;;;;;5065291;28;20032;-83
2023/06/14 01:50:01;;;;;;;5.63;1.50;;;14.30;92.80;;;;;;5061849;28;20036;-83
2023/06/14 01:52:27;;;;;;;4.60;1.25;;;14.30;93.10;;;;;;5065708;28;20080;-83
2023/06/14 01:54:53;;;;;;;3.78;1.20;;;14.20;93.20;;;;;;5065082;28;20083;-84
2023/06/14 01:57:20;;;;;;;3.42;0.90;;;14.20;93.40;;;;;;5063474;28;20423;-83
2023/06/14 01:59:48;;;;;;;1.88;1.25;;;14.20;93.50;;;;;;5068504;28;20101;-83
2023/06/14 02:02:14;;;;;;;3.42;1.20;;;14.20;93.70;;;;;;5061618;28;20067;-83
2023/06/14 02:04:40;;;;;;;2.65;1.13;;;14.10;93.60;;;;;;5063333;28;20105;-83
2023/06/14 02:07:06;;;;;;;6.18;1.23;;;14.20;93.80;;;;;;5063309;28;20526;-84
2023/06/14 02:09:31;;;;;;;3.00;1.23;;;14.20;93.80;;;;;;5062461;28;20072;-83
2023/06/14 02:11:57;;;;;;;4.25;1.33;;;14.10;94.00;;;;;;5062645;28;20498;-83
2023/06/14 02:14:23;;;;;;;4.65;1.05;;;14.10;94.10;;;;;;5065928;28;20047;-82
2023/06/14 02:16:49;;;;;;;4.82;1.20;;;14.10;94.30;;;;;;5060596;28;20032;-83
2023/06/14 02:19:16;;;;;;;2.53;1.27;;;14.10;94.70;;;;;;5061915;28;20052;-83
2023/06/14 02:21:42;;;;;;;3.88;1.10;;;14.00;94.70;;;;;;5097107;28;20036;-83
2023/06/14 02:24:08;;;;;;;2.70;1.10;;;14.00;94.80;;;;;;5064630;28;20047;-84
2023/06/14 02:26:34;;;;;;;5.00;1.50;;;14.00;94.90;;;;;;5062772;28;20033;-83
2023/06/14 02:28:59;;;;;;;5.82;1.20;;;14.00;95.00;;;;;;5060285;28;20495;-83
2023/06/14 02:31:25;;;;;;;5.68;1.20;;;13.90;95.50;;;;;;5060626;28;20047;-83
2023/06/14 02:33:51;;;;;;;5.85;1.27;;;13.90;96.00;;;;;;5061374;28;20044;-83
2023/06/14 02:36:16;;;;;;;4.82;1.30;;;13.80;95.80;;;;;;5089827;28;20045;-83
2023/06/14 02:38:42;;;;;;;6.07;1.08;;;13.90;96.00;;;;;;5057293;28;20051;-82
2023/06/14 02:41:07;;;;;;;3.95;1.00;;;13.80;96.20;;;;;;5093669;28;20063;-82
2023/06/14 02:43:33;;;;;;;8.43;2.00;;;13.80;96.30;;;;;;5093709;28;20071;-84
2023/06/14 02:45:59;;;;;;;4.15;1.25;;;13.80;96.60;;;;;;5060733;28;20144;-83
2023/06/14 02:48:24;;;;;;;3.92;1.33;;;13.80;96.60;;;;;;5058928;28;20525;-83
2023/06/14 02:50:51;;;;;;;2.42;1.13;;;13.70;97.10;;;;;;5060574;28;20460;-82
2023/06/14 02:53:17;;;;;;;2.95;1.13;;;13.70;97.10;;;;;;5058991;28;20047;-82
2023/06/14 02:55:42;;;;;;;2.42;1.10;;;13.60;97.60;;;;;;5060527;28;20044;-82
2023/06/14 02:58:08;;;;;;;3.08;1.30;;;13.60;97.90;;;;;;5060187;28;20055;-83
2023/06/14 03:00:35;;;;;;;4.00;1.33;;;13.60;97.90;;;;;;5062097;28;20067;-83
2023/06/14 03:03:01;;;;;;;2.33;1.23;;;13.60;97.90;;;;;;5059645;28;20095;-82
2023/06/14 03:05:28;;;;;;;3.70;1.58;;;13.60;98.70;;;;;;5060076;28;20142;-83
2023/06/14 03:07:54;;;;;;;4.15;1.60;;;13.60;98.60;;;;;;5058992;28;20047;-83
2023/06/14 03:10:20;;;;;;;2.72;1.27;;;13.60;98.70;;;;;;5063357;28;20037;-83
2023/06/14 03:12:47;;;;;;;3.33;1.27;;;13.60;99.20;;;;;;5060116;28;20383;-82
2023/06/14 03:15:15;;;;;;;4.53;1.50;;;13.50;99.50;;;;;;5060204;28;20122;-83
2023/06/14 03:17:45;;;;;;;7.75;1.40;;;13.60;99.60;;;;;;5059771;28;20101;-82
2023/06/14 03:20:10;;;;;;;2.03;1.15;;;13.50;99.90;;;;;;5062230;28;20032;-83
2023/06/14 03:22:37;;;;;;;5.68;1.35;;;13.20;99.90;;;;;;5061104;28;20106;-82
2023/06/14 03:25:04;;;;;;;4.03;1.23;;;13.50;99.90;;;;;;5062465;28;20056;-82
2023/06/14 03:27:29;;;;;;;3.42;1.10;;;13.50;99.90;;;;;;5062142;28;20160;-82
2023/06/14 03:29:55;;;;;;;6.07;1.10;;;13.50;99.90;;;;;;5058747;28;20740;-83
2023/06/14 03:32:20;;;;;;;4.18;1.52;;;13.50;99.90;;;;;;5059020;28;20106;-82
2023/06/14 03:34:46;;;;;;;5.60;1.40;;;13.50;99.90;;;;;;5062539;28;20037;-82
2023/06/14 03:37:12;;;;;;;5.68;1.42;;;13.50;99.90;;;;;;5066617;28;20035;-81
2023/06/14 03:39:37;;;;;;;4.40;1.38;;;13.50;99.90;;;;;;5064585;28;20515;-83
2023/06/14 03:42:03;;;;;;;3.03;1.30;;;13.60;99.90;;;;;;5067567;28;20070;-82
2023/06/14 03:44:30;;;;;;;5.43;1.73;;;13.60;99.90;;;;;;5065256;28;20767;-83
2023/06/14 03:46:55;;;;;;;2.35;1.48;;;13.70;99.90;;;;;;5065451;28;20040;-83
2023/06/14 03:49:21;;;;;;;3.58;1.35;;;13.70;99.90;;;;;;5065719;28;20040;-82
2023/06/14 03:51:50;;;;;;;2.40;1.05;;;13.70;99.90;;;;;;5069455;28;20040;-83
2023/06/14 03:54:16;;;;;;;2.75;1.20;;;13.80;99.90;;;;;;5062396;28;20503;-83
2023/06/14 03:56:41;;;;;;;4.00;1.63;;;13.80;99.90;;;;;;5064400;28;20094;-82
2023/06/14 03:59:07;;;;;;;4.18;1.67;;;13.80;99.90;;;;;;5065753;28;20032;-83
2023/06/14 04:01:33;;;;;;;4.57;1.73;;;13.80;99.90;;;;;;5061910;28;20045;-82
2023/06/14 04:03:59;;;;;;;3.13;1.67;;;13.90;99.90;;;;;;5063675;28;20072;-82
2023/06/14 04:06:31;;;;;;;6.75;1.52;;;13.90;99.90;;;;;;5064883;28;20075;-83
2023/06/14 04:08:57;;;;;;;7.25;1.70;;;14.10;99.90;;;;;;5066121;28;20063;-82
2023/06/14 04:11:22;;;;;;;5.55;1.85;;;14.20;99.90;;;;;;5067025;28;20511;-82
2023/06/14 04:13:48;;;;;;;5.28;1.70;;;14.40;99.90;;;;;;5065947;28;20602;-81
2023/06/14 04:16:14;;;;;;;2.80;1.60;;;14.50;99.90;;;;;;5064470;28;20486;-82
2023/06/14 04:18:39;;;;;;;7.30;1.67;;;14.50;99.90;;;;;;5059523;28;20135;-82
2023/06/14 04:21:05;;;;;;;3.05;1.42;;;14.70;99.90;;;;;;5063596;28;20403;-83
2023/06/14 04:23:32;;;;;;;6.82;1.83;;;14.80;99.90;;;;;;5064562;28;20053;-83
2023/06/14 04:26:02;;;;;;;3.72;1.80;;;15.00;99.90;;;;;;5064033;28;20120;-83
2023/06/14 04:28:28;;;;;;;3.90;1.60;;;15.20;99.90;;;;;;5064406;28;20666;-83
2023/06/14 04:30:53;;;;;;;10.80;1.45;;;15.70;99.90;;;;;;5061212;28;20045;-82
2023/06/14 04:33:19;;;;;;;4.60;1.70;;;16.80;99.90;;;;;;5065821;28;20051;-82
2023/06/14 04:35:47;;;;;;;4.45;1.60;;;17.90;98.00;;;;;;5063713;28;20048;-83
2023/06/14 04:38:12;;;;;;;4.88;1.30;;;18.80;96.10;;;;;;5065293;28;20056;-83
2023/06/14 04:40:44;;;;;;;6.00;1.65;;;19.10;95.20;;;;;;5081463;28;20036;-83
2023/06/14 04:43:12;;;;;;;4.05;1.50;;;19.60;94.80;;;;;;5064912;28;20131;-82
2023/06/14 04:45:45;;;;;;;4.82;1.38;;;19.80;94.20;;;;;;5063582;28;20048;-83
2023/06/14 04:48:11;;;;;;;6.93;1.48;;;20.40;93.60;;;;;;5064073;28;20052;-85
2023/06/14 04:50:37;;;;;;;6.47;1.60;;;21.10;92.70;;;;;;5064013;28;21013;-84
2023/06/14 04:53:03;;;;;;;6.85;1.88;;;21.90;91.90;;;;;;5063346;28;20052;-85
2023/06/14 04:55:28;;;;;;;2.47;1.52;;;22.10;91.20;;;;;;5068223;28;20074;-85
2023/06/14 04:57:54;;;;;;;4.90;1.80;;;22.90;90.80;;;;;;5068236;28;20557;-85
2023/06/14 05:00:20;;;;;;;5.03;1.70;;;22.60;89.20;;;;;;5064744;28;20036;-85
2023/06/14 05:02:46;;;;;;;7.68;1.45;;;23.40;89.40;;;;;;5097615;28;20047;-85
2023/06/14 05:05:12;;;;;;;3.78;1.20;;;22.40;86.80;;;;;;5067997;28;20102;-86
2023/06/14 05:07:38;;;;;;;5.72;2.10;;;22.80;88.50;;;;;;5069873;28;20751;-87
2023/06/14 05:10:05;;;;;;;4.85;1.48;;;22.70;88.20;;;;;;5070329;28;20036;-85
2023/06/14 05:12:30;;;;;;;6.35;1.70;;;21.70;88.30;;;;;;5065657;28;20048;-84
2023/06/14 05:15:02;;;;;;;5.10;1.70;;;20.90;89.70;;;;;;5069967;28;20546;-86
2023/06/14 05:17:30;;;;;;;7.28;1.77;;;20.40;90.50;;;;;;5067464;28;20036;-85
2023/06/14 05:19:56;;;;;;;8.25;1.63;;;20.40;90.60;;;;;;5067548;28;20384;-86
2023/06/14 05:22:22;;;;;;;5.30;1.65;;;21.10;90.50;;;;;;5068460;28;20052;-84
2023/06/14 05:24:48;;;;;;;9.75;1.92;;;21.30;90.20;;;;;;5066632;28;20049;-86
2023/06/14 05:27:13;;;;;;;7.82;2.60;;;21.10;89.70;;;;;;5050931;28;20075;-86
2023/06/14 05:29:40;;;;;;;9.75;2.00;;;21.00;90.20;;;;;;5070019;28;20032;-86
2023/06/14 05:32:05;;;;;;;7.57;1.60;;;20.80;90.40;;;;;;5065028;28;20506;-85
2023/06/14 05:34:31;;;;;;;7.57;2.10;;;20.70;90.60;;;;;;5070192;28;20040;-86
2023/06/14 05:36:57;;;;;;;5.03;1.80;;;20.60;90.60;;;;;;5061791;28;20076;-87
2023/06/14 05:39:35;;;;;;;5.10;1.50;;;20.60;90.50;;;;;;5081783;28;20045;-86
2023/06/14 05:42:01;;;;;;;4.32;1.88;;;20.50;90.30;;;;;;5094878;28;20036;-87
2023/06/14 05:44:26;;;;;;;6.45;1.85;;;20.60;90.70;;;;;;5065208;28;20407;-86
2023/06/14 05:46:52;;;;;;;6.38;1.70;;;20.60;90.80;;;;;;5051052;28;20039;-82
2023/06/14 05:49:18;;;;;;;4.43;1.70;;;20.50;90.30;;;;;;5067754;28;20068;-88
2023/06/14 05:51:46;;;;;;;3.53;1.58;;;20.60;90.40;;;;;;5068856;28;20519;-86
2023/06/14 05:54:13;;;;;;;7.82;1.65;;;20.50;90.20;;;;;;5067697;28;20368;-85
2023/06/14 05:57:01;;;;;;;4.72;2.15;;;20.80;90.70;;;;;;5062401;28;20098;-86
2023/06/14 05:59:27;;;;;;;5.55;1.42;;;20.90;90.70;;;;;;5079772;28;20070;-85
2023/06/14 06:01:52;;;;;;;4.78;1.90;;;20.90;90.40;;;;;;5049194;28;20095;-85
2023/06/14 06:04:18;;;;;;;6.75;1.77;;;21.00;90.60;;;;;;5066516;28;20632;-84
2023/06/14 06:06:45;;;;;;;8.07;2.03;;;21.30;90.50;;;;;;5064350;28;20040;-85
2023/06/14 06:09:10;;;;;;;5.10;1.60;;;21.50;90.20;;;;;;5062170;28;20047;-85
2023/06/14 06:11:36;;;;;;;3.85;1.83;;;21.50;89.90;;;;;;5066109;28;20052;-85
2023/06/14 06:14:01;;;;;;;8.55;1.85;;;21.60;89.60;;;;;;5065295;28;20431;-85
2023/06/14 06:16:27;;;;;;;8.95;1.65;;;21.50;87.40;;;;;;5061895;28;20452;-84
2023/06/14 06:18:53;;;;;;;5.82;1.35;;;21.40;88.40;;;;;;5061675;28;20036;-85
2023/06/14 06:21:18;;;;;;;5.28;1.38;;;21.40;87.90;;;;;;5067579;28;20471;-84
2023/06/14 06:23:44;;;;;;;5.50;2.03;;;21.30;88.60;;;;;;5064611;28;20048;-84
2023/06/14 06:26:09;;;;;;;5.65;1.60;;;21.70;89.50;;;;;;5065724;28;20032;-85
2023/06/14 06:28:35;;;;;;;5.60;1.83;;;21.90;89.30;;;;;;5065861;28;20048;-84
2023/06/14 06:31:00;;;;;;;5.75;1.70;;;21.60;87.60;;;;;;5062128;28;20052;-84
2023/06/14 06:33:26;;;;;;;6.82;2.03;;;21.80;88.40;;;;;;5064430;28;20051;-85
2023/06/14 06:35:52;;;;;;;6.55;1.33;;;21.90;86.90;;;;;;5060100;28;20136;-85
2023/06/14 06:38:18;;;;;;;9.13;1.35;;;22.00;87.50;;;;;;5067330;28;20044;-86
2023/06/14 06:40:44;;;;;;;3.63;1.80;;;22.20;87.50;;;;;;5062362;28;20689;-86
2023/06/14 06:43:13;;;;;;;8.95;1.20;;;22.20;85.30;;;;;;5061480;28;20044;-84
2023/06/14 06:45:39;;;;;;;8.80;1.83;;;22.10;85.60;;;;;;5063336;28;20139;-85
2023/06/14 06:48:05;;;;;;;5.72;1.13;;;21.90;86.50;;;;;;5093677;28;20040;-85
2023/06/14 06:50:31;;;;;;;5.10;2.03;;;22.30;87.20;;;;;;5063254;28;20536;-85
2023/06/14 06:52:57;;;;;;;4.93;2.10;;;22.50;86.60;;;;;;5065608;28;20087;-85
2023/06/14 06:55:23;;;;;;;3.80;1.10;;;22.60;86.30;;;;;;5064171;28;20423;-85
2023/06/14 06:57:49;;;;;;;4.43;1.30;;;22.60;86.30;;;;;;5058713;28;20175;-87
2023/06/14 07:00:16;;;;;;;8.63;1.88;;;22.60;85.10;;;;;;5063807;28;20132;-84
2023/06/14 07:02:41;;;;;;;2.97;1.52;;;22.30;84.90;;;;;;5059890;28;20077;-85
2023/06/14 07:05:07;;;;;;;5.30;1.35;;;22.20;85.20;;;;;;5062921;28;20474;-86
2023/06/14 07:07:33;;;;;;;4.75;1.25;;;22.00;84.40;;;;;;5063445;28;20067;-86
2023/06/14 07:10:00;;;;;;;3.28;1.27;;;22.20;85.40;;;;;;5066303;28;20040;-86
2023/06/14 07:12:25;;;;;;;6.28;1.35;;;22.30;86.10;;;;;;5063731;28;20090;-85
2023/06/14 07:14:51;;;;;;;1.95;1.40;;;22.50;85.00;;;;;;5050556;28;20040;-86
2023/06/14 07:17:17;;;;;;;7.50;1.85;;;22.60;84.90;;;;;;5064123;28;20047;-85
2023/06/14 07:19:42;;;;;;;6.40;1.08;;;22.50;84.90;;;;;;5063642;28;20499;-85
2023/06/14 07:22:08;;;;;;;4.32;1.65;;;22.50;84.20;;;;;;5058377;28;20189;-85
2023/06/14 07:24:36;;;;;;;6.10;1.70;;;22.60;84.60;;;;;;5064597;28;20032;-85
2023/06/14 07:27:03;;;;;;;4.05;1.10;;;22.40;82.50;;;;;;5060882;28;20402;-85
2023/06/14 07:29:28;;;;;;;14.07;1.77;;;22.50;84.00;;;;;;5064926;28;20075;-85
2023/06/14 07:31:54;;;;;;;3.08;1.08;;;22.60;83.60;;;;;;5065578;28;20490;-86
2023/06/14 07:34:20;;;;;;;3.67;1.50;;;22.90;84.90;;;;;;5097455;28;20028;-86
2023/06/14 07:36:46;;;;;;;6.97;1.30;;;22.80;82.30;;;;;;5061269;28;20502;-85
2023/06/14 07:39:11;;;;;;;7.70;1.52;;;22.80;82.60;;;;;;5065336;28;20097;-83
2023/06/14 07:41:37;;;;;;;2.67;1.42;;;23.00;84.20;;;;;;5087472;28;20091;-82
2023/06/14 07:44:05;;;;;;;5.97;1.80;;;22.80;82.10;;;;;;5072209;28;20044;-83
2023/06/14 07:46:31;;;;;;;3.25;1.30;;;22.90;83.40;;;;;;5066943;28;20044;-83
2023/06/14 07:48:57;;;;;;;4.13;1.38;;;23.10;83.80;;;;;;5072784;28;20059;-82
2023/06/14 07:51:23;;;;;;;4.18;1.35;;;23.20;83.00;;;;;;5070255;28;20044;-83
2023/06/14 07:53:49;;;;;;;4.72;1.50;;;23.20;82.10;;;;;;5067256;28;20041;-83
2023/06/14 07:56:15;;;;;;;4.72;1.50;;;23.00;81.50;;;;;;5068243;28;20692;-84
2023/06/14 07:58:40;;;;;;;2.50;1.23;;;23.30;82.00;;;;;;5067025;28;20032;-83
2023/06/14 08:01:07;;;;;;;7.97;1.73;;;23.40;83.40;;;;;;5068900;28;20118;-83
2023/06/14 08:03:34;;;;;;;5.00;1.42;;;23.40;80.60;;;;;;5066298;28;20489;-84
2023/06/14 08:06:00;;;;;;;5.95;1.27;;;23.20;81.40;;;;;;5071810;28;20059;-84
2023/06/14 08:08:26;;;;;;;9.00;1.40;;;23.20;80.70;;;;;;5065449;28;20427;-84
2023/06/14 08:10:52;;;;;;;7.57;1.00;;;23.20;80.90;;;;;;5066617;28;20051;-84
2023/06/14 08:13:18;;;;;;;4.95;1.17;;;23.10;81.10;;;;;;5067846;28;20036;-84
2023/06/14 08:15:43;;;;;;;5.30;1.27;;;23.10;81.70;;;;;;5069479;28;20044;-84
2023/06/14 08:18:09;;;;;;;3.80;1.45;;;23.20;80.70;;;;;;5068467;28;20097;-83
2023/06/14 08:20:35;;;;;;;5.90;1.00;;;23.30;81.10;;;;;;5050012;28;20040;-84
2023/06/14 08:23:03;;;;;;;4.63;1.20;;;23.30;80.20;;;;;;5070438;28;20037;-83
2023/06/14 08:25:30;;;;;;;5.07;1.33;;;23.50;80.90;;;;;;5090181;28;20086;-84
2023/06/14 08:27:56;;;;;;;2.97;1.40;;;23.70;80.40;;;;;;5074917;28;20040;-82
2023/06/14 08:30:22;;;;;;;1.70;0.85;;;23.50;80.00;;;;;;5072109;28;20128;-83
2023/06/14 08:32:47;;;;;;;3.47;1.20;;;23.70;80.70;;;;;;5073876;28;20083;-83
2023/06/14 08:35:13;;;;;;;3.10;1.10;;;23.60;79.30;;;;;;5073829;28;20414;-85
2023/06/14 08:37:42;;;;;;;2.08;0.85;;;23.40;78.30;;;;;;5068580;28;20477;-83
2023/06/14 08:40:22;;;;;;;3.95;1.05;;;23.40;78.00;;;;;;5067169;28;20040;-83
2023/06/14 08:42:51;;;;;;;1.88;0.80;;;23.20;77.20;;;;;;5102318;28;20116;-82
2023/06/14 08:45:17;;;;;;;4.38;0.90;;;23.30;79.40;;;;;;5076913;28;20044;-84
2023/06/14 08:47:43;;;;;;;1.92;0.90;;;23.40;79.00;;;;;;5072708;28;20144;-83
2023/06/14 08:50:09;;;;;;;2.85;1.00;;;23.60;79.60;;;;;;5069524;28;20029;-85
2023/06/14 08:52:40;;;;;;;2.10;1.17;;;23.90;79.80;;;;;;5072018;28;20036;-82
2023/06/14 08:55:08;;;;;;;6.22;1.25;;;23.70;75.70;;;;;;5068114;28;20040;-83
2023/06/14 08:57:37;;;;;;;3.72;1.17;;;23.70;76.80;;;;;;5054737;28;20414;-83
2023/06/14 09:00:13;;;;;;;1.90;1.02;;;23.80;79.30;;;;;;5069922;28;20050;-82
2023/06/14 09:02:43;;;;;;;4.38;1.02;;;24.20;80.30;;;;;;5068095;28;20127;-82
2023/06/14 09:05:17;;;;;;;1.60;0.80;;;24.40;78.90;;;;;;5066089;28;20039;-84
2023/06/14 09:07:44;;;;;;;1.60;1.15;;;24.40;78.20;;;;;;5070917;28;20048;-85
2023/06/14 09:10:11;;;;;;;5.10;1.50;;;24.30;79.40;;;;;;5068586;28;20040;-83
2023/06/14 09:12:37;;;;;;;1.85;1.08;;;24.20;77.40;;;;;;5070934;28;20561;-83
2023/06/14 09:15:08;;;;;;;4.53;1.30;;;24.10;78.50;;;;;;5071490;28;20036;-82
2023/06/14 09:17:37;;;;;;;4.72;1.30;;;24.00;78.50;;;;;;5071306;28;20052;-85
2023/06/14 09:20:09;;;;;;;4.65;0.90;;;23.60;76.40;;;;;;5071335;28;20494;-82
2023/06/14 09:22:35;;;;;;;4.03;1.55;;;23.70;76.30;;;;;;5072599;28;20053;-82
2023/06/14 09:25:01;;;;;;;5.82;0.98;;;23.80;77.90;;;;;;5072884;28;20036;-83
2023/06/14 09:27:28;;;;;;;3.45;1.00;;;23.80;78.40;;;;;;5071254;28;20449;-83
2023/06/14 09:29:54;;;;;;;1.40;1.20;;;23.90;77.10;;;;;;5071914;28;20048;-83
2023/06/14 09:32:23;;;;;;;3.83;0.88;;;23.60;76.50;;;;;;5068119;28;20093;-82
2023/06/14 09:34:49;;;;;;;3.10;1.02;;;23.80;77.10;;;;;;5067017;28;20129;-83
2023/06/14 09:37:31;;;;;;;3.15;0.88;;;24.00;79.30;;;;;;5058249;28;20056;-83
2023/06/14 09:39:58;;;;;;;6.72;1.45;;;24.10;77.80;;;;;;5068799;28;20036;-81
2023/06/14 09:42:28;;;;;;;5.50;1.23;;;24.00;76.80;;;;;;5071308;28;20044;-85
2023/06/14 09:44:55;;;;;;;6.97;1.30;;;23.90;77.10;;;;;;5069768;28;20048;-83
2023/06/14 09:47:21;;;;;;;5.80;1.05;;;24.10;78.20;;;;;;5072360;28;20576;-86
2023/06/14 09:49:48;;;;;;;3.83;1.42;;;24.30;76.80;;;;;;5069711;28;20500;-84
2023/06/14 09:52:18;;;;;;;3.28;1.00;;;24.20;76.80;;;;;;5069975;28;20083;-84
2023/06/14 09:54:47;;;;;;;6.78;1.40;;;24.10;78.00;;;;;;5070144;28;20036;-84
2023/06/14 09:57:14;;;;;;;4.40;1.10;;;24.30;77.10;;;;;;5052745;28;20089;-83
2023/06/14 09:59:45;;;;;;;3.88;1.15;;;24.50;80.00;;;;;;5068152;28;20056;-83
2023/06/14 10:02:35;;;;;;;4.75;0.80;;;24.60;78.40;;;;;;5080772;28;20044;-83
2023/06/14 10:05:10;;;;;;;6.35;1.05;;;24.70;78.70;;;;;;5069440;28;20417;-83
2023/06/14 10:07:45;;;;;;;;;;;24.80;77.50;;;;;;5098941;28;20459;-83
2023/06/14 10:10:11;;;;;;;2.65;1.00;;;24.90;77.80;;;;;;5064981;28;20009;-83
2023/06/14 10:12:38;;;;;;;4.70;1.40;;;24.70;77.50;;;;;;5070974;28;20045;-82
2023/06/14 10:15:04;;;;;;;3.00;0.90;;;24.70;77.00;;;;;;5101781;28;20178;-83
2023/06/14 10:17:46;;;;;;;10.15;1.65;;;24.70;77.60;;;;;;5096740;28;20102;-84
2023/06/14 10:20:28;;;;;;;4.47;0.80;;;24.50;76.00;;;;;;5102638;28;20032;-84
2023/06/14 10:23:03;;;;;;;8.27;1.02;;;24.50;76.30;;;;;;5108047;28;20110;-85
2023/06/14 10:25:30;;;;;;;1.15;0.95;;;24.50;75.00;;;;;;5073500;28;20154;-83
2023/06/14 10:28:24;;;;;;;1.40;0.70;;;24.40;76.30;;;;;;5070678;28;20036;-83
2023/06/14 10:31:08;;;;;;;2.15;0.50;;;24.30;75.10;;;;;;5063119;28;20518;-85
2023/06/14 10:34:01;;;;;;;3.92;0.85;;;24.10;73.50;;;;;;5068759;28;20598;-83
2023/06/14 10:36:30;;;;;;;5.63;0.93;;;24.30;74.20;;;;;;5094514;28;20093;-84
2023/06/14 10:39:10;;;;;;;2.10;0.57;;;24.30;73.70;;;;;;5052306;28;20794;-83
2023/06/14 10:41:38;;;;;;;1.65;0.70;;;24.40;72.80;;;;;;5099622;28;20395;-83
2023/06/14 10:44:21;;;;;;;1.55;0.57;;;24.50;74.10;;;;;;5086148;28;20042;-84
2023/06/14 10:46:54;;;;;;;4.22;0.73;;;24.40;72.50;;;;;;5070026;28;20048;-85
2023/06/14 10:49:35;;;;;;;5.07;0.80;;;24.40;74.80;;;;;;5069310;28;20479;-84
2023/06/14 10:52:03;;;;;;;4.10;0.70;;;24.60;74.40;;;;;;5048142;28;20040;-83
2023/06/14 10:54:28;;;;;;;5.55;0.70;;;24.60;73.50;;;;;;5098913;28;20033;-83
2023/06/14 10:56:55;;;;;;;2.15;0.70;;;24.50;72.70;;;;;;5070659;28;20110;-82
2023/06/14 10:59:21;;;;;;;6.53;0.60;;;24.50;71.70;;;;;;5072976;28;20123;-83
2023/06/14 11:02:06;;;;;;;8.52;0.93;;;24.50;71.40;;;;;;5051476;28;20070;-82
2023/06/14 11:04:48;;;;;;;2.38;1.00;;;24.50;71.80;;;;;;5067160;28;20040;-84
2023/06/14 11:07:55;;;;;;;3.17;1.00;;;24.40;72.60;;;;;;5068767;28;20055;-83
2023/06/14 11:10:39;;;;;;;0.70;0.60;;;24.60;74.10;;;;;;5098484;28;20455;-84
2023/06/14 11:13:08;;;;;;;0.90;0.47;;;24.70;73.50;;;;;;5053131;28;20040;-84
2023/06/14 11:15:36;;;;;;;3.33;0.70;;;24.80;74.50;;;;;;5069327;28;20394;-83
2023/06/14 11:18:06;;;;;;;6.25;1.27;;;24.90;73.50;;;;;;5065092;28;20037;-84
2023/06/14 11:20:34;;;;;;;5.75;0.70;;;24.90;73.30;;;;;;5067482;28;20036;-85
2023/06/14 11:23:01;;;;;;;7.05;1.13;;;24.80;72.20;;;;;;5069588;28;20119;-83
2023/06/14 11:25:28;;;;;;;0.65;0.40;;;24.70;73.40;;;;;;5070716;28;20041;-85
2023/06/14 11:27:55;;;;;;;6.00;1.02;;;24.80;74.20;;;;;;5068961;28;20053;-83
2023/06/14 11:30:20;;;;;;;1.42;0.70;;;24.70;73.40;;;;;;5067767;28;20072;-85
2023/06/14 11:32:47;;;;;;;6.53;0.68;;;24.60;72.50;;;;;;5066474;28;20076;-83
2023/06/14 11:35:13;;;;;;;3.17;0.95;;;24.50;73.30;;;;;;5066393;28;20113;-83
2023/06/14 11:37:41;;;;;;;2.70;0.65;;;24.50;72.70;;;;;;5069369;28;20033;-85
2023/06/14 11:40:08;;;;;;;1.92;0.60;;;24.50;73.00;;;;;;5067154;28;20041;-83
2023/06/14 11:42:34;;;;;;;1.65;0.70;;;24.50;72.40;;;;;;5069046;28;20044;-85
2023/06/14 11:45:01;;;;;;;3.20;0.57;;;24.60;72.80;;;;;;5069059;28;20136;-83
2023/06/14 11:47:35;;;;;;;2.40;0.80;;;24.30;71.10;;;;;;5065941;28;20040;-84
2023/06/14 11:50:01;;;;;;;0.95;0.68;;;24.30;72.80;;;;;;5054628;28;20392;-85
2023/06/14 11:52:27;;;;;;;6.82;1.10;;;24.40;73.50;;;;;;5066278;28;20049;-83
2023/06/14 11:54:53;;;;;;;3.53;0.88;;;24.50;73.40;;;;;;5070890;28;20039;-83
2023/06/14 11:57:19;;;;;;;2.25;0.88;;;24.50;70.80;;;;;;5071946;28;20039;-83
2023/06/14 11:59:46;;;;;;;2.97;0.80;;;24.40;70.70;;;;;;5073873;28;20081;-84
2023/06/14 12:02:19;;;;;;;1.23;0.68;;;24.40;72.00;;;;;;5070062;28;20044;-82
2023/06/14 12:04:50;;;;;;;3.38;0.65;;;24.70;72.20;;;;;;5073068;28;20043;-84
2023/06/14 12:07:19;;;;;;;3.42;0.60;;;24.50;72.40;;;;;;5067626;28;20110;-83
2023/06/14 12:09:54;;;;;;;3.08;0.88;;;24.40;71.50;;;;;;5073298;28;20535;-83
2023/06/14 12:12:26;;;;;;;5.20;0.65;;;24.50;73.50;;;;;;5073017;28;20049;-84
2023/06/14 12:14:52;;;;;;;13.38;2.20;;;24.70;75.10;;;;;;5072794;28;20122;-83
2023/06/14 12:17:19;;;;;;;10.77;1.33;;;24.50;72.40;;;;;;5068024;28;20121;-84
2023/06/14 12:19:46;;;;;;;3.03;0.95;;;24.40;72.20;;;;;;5069417;28;20036;-86
2023/06/14 12:22:12;;;;;;;1.40;0.70;;;24.40;72.70;;;;;;5074592;28;20946;-84
2023/06/14 12:24:39;;;;;;;2.17;0.80;;;24.50;72.80;;;;;;5071770;28;20045;-83
2023/06/14 12:27:05;;;;;;;3.25;0.85;;;24.50;74.40;;;;;;5071021;28;20097;-86
2023/06/14 12:29:34;;;;;;;2.55;0.80;;;24.50;73.50;;;;;;5066662;28;20044;-84
2023/06/14 12:32:00;;;;;;;2.75;0.70;;;24.50;71.50;;;;;;5074315;28;20037;-84
2023/06/14 12:34:27;;;;;;;2.92;0.68;;;24.40;71.70;;;;;;5061746;28;20035;-84
2023/06/14 12:36:55;;;;;;;6.18;0.77;;;24.50;72.80;;;;;;5071938;28;20044;-84
2023/06/14 12:39:22;;;;;;;2.42;0.60;;;24.60;74.20;;;;;;5066681;28;20032;-83
2023/06/14 12:41:48;;;;;;;4.35;0.90;;;24.60;73.50;;;;;;5069557;28;20080;-84
2023/06/14 12:44:15;;;;;;;5.22;0.75;;;24.60;72.40;;;;;;5071622;28;20055;-84
2023/06/14 12:46:42;;;;;;;1.30;0.52;;;24.70;73.10;;;;;;5066915;28;20032;-82
2023/06/14 12:49:09;;;;;;;0.98;0.70;;;24.50;72.00;;;;;;5078518;28;20059;-82